createdAt,value
2019-03-15T00:02:21.940Z,56.27
2019-03-15T00:04:52.168Z,56.25
2019-03-15T00:07:22.381Z,56.30
2019-03-15T00:09:52.697Z,56.30
2019-03-15T00:12:23.231Z,56.32
2019-03-15T00:14:53.533Z,56.33
2019-03-15T00:17:24.100Z,56.34
2019-03-15T00:19:56.011Z,56.37
2019-03-15T00:22:26.669Z,56.39
2019-03-15T00:24:57.297Z,56.40
2019-03-15T00:27:27.597Z,56.39
2019-03-15T00:29:58.168Z,56.41
2019-03-15T00:32:28.840Z,56.45
2019-03-15T00:34:59.465Z,56.46
2019-03-15T00:37:30.732Z,56.48
2019-03-15T00:40:01.062Z,56.48
2019-03-15T00:42:32.338Z,56.50
2019-03-15T00:45:02.956Z,56.51
2019-03-15T00:47:33.229Z,56.51
2019-03-15T00:50:06.026Z,56.56
2019-03-15T00:52:36.325Z,56.56
2019-03-15T00:55:08.200Z,56.59
2019-03-15T00:57:38.537Z,56.58
2019-03-15T01:00:16.087Z,56.60
2019-03-15T01:02:46.864Z,56.62
2019-03-15T01:05:17.212Z,56.65
2019-03-15T01:07:47.786Z,56.67
2019-03-15T01:10:18.436Z,56.70
2019-03-15T01:12:48.717Z,56.70
2019-03-15T01:15:19.025Z,56.75
2019-03-15T01:17:49.612Z,56.75
2019-03-15T01:20:19.882Z,56.79
2019-03-15T01:22:50.500Z,56.83
2019-03-15T01:25:21.135Z,56.84
2019-03-15T01:27:51.787Z,56.86
2019-03-15T01:30:22.072Z,56.88
2019-03-15T01:32:52.286Z,56.94
2019-03-15T01:35:22.839Z,56.96
2019-03-15T01:37:53.118Z,56.99
2019-03-15T01:40:23.329Z,57.01
2019-03-15T01:42:53.558Z,57.03
2019-03-15T01:45:23.768Z,57.05
2019-03-15T01:47:53.988Z,57.10
2019-03-15T01:50:24.495Z,57.12
2019-03-15T01:52:54.991Z,57.16
2019-03-15T01:55:25.225Z,57.21
2019-03-15T01:57:55.479Z,57.24
2019-03-15T02:00:25.706Z,57.27
2019-03-15T02:02:56.802Z,57.29
2019-03-15T02:05:27.012Z,57.32
2019-03-15T02:07:57.316Z,57.37
2019-03-15T02:10:27.551Z,57.41
2019-03-15T02:12:57.767Z,57.44
2019-03-15T02:15:28.076Z,57.47
2019-03-15T02:17:58.240Z,57.51
2019-03-15T02:20:28.799Z,57.53
2019-03-15T02:22:59.094Z,57.60
2019-03-15T02:25:29.307Z,57.61
2019-03-15T02:27:59.619Z,57.68
2019-03-15T02:30:29.823Z,57.72
2019-03-15T02:33:00.445Z,57.75
2019-03-15T02:35:30.750Z,57.80
2019-03-15T02:38:00.950Z,57.84
2019-03-15T02:40:31.160Z,57.89
2019-03-15T02:43:01.720Z,57.93
2019-03-15T02:45:33.379Z,57.97
2019-03-15T02:48:03.931Z,58.03
2019-03-15T02:50:34.230Z,58.08
2019-03-15T02:53:04.808Z,58.11
2019-03-15T02:55:35.452Z,58.15
2019-03-15T02:58:05.747Z,58.20
2019-03-15T03:00:35.973Z,58.25
2019-03-15T03:03:06.181Z,58.29
2019-03-15T03:05:36.410Z,58.31
2019-03-15T03:08:07.934Z,58.36
2019-03-15T03:10:38.609Z,58.42
2019-03-15T03:13:10.666Z,58.46
2019-03-15T03:15:41.227Z,58.48
2019-03-15T03:18:11.798Z,58.55
2019-03-15T03:20:42.510Z,58.61
2019-03-15T03:23:12.786Z,58.64
2019-03-15T03:25:44.396Z,58.69
2019-03-15T03:28:15.338Z,58.72
2019-03-15T03:30:46.817Z,58.76
2019-03-15T03:33:17.697Z,58.81
2019-03-15T03:35:47.937Z,58.85
2019-03-15T03:38:18.228Z,58.93
2019-03-15T03:40:48.406Z,58.92
2019-03-15T03:43:18.635Z,59.00
2019-03-15T03:45:49.192Z,59.02
2019-03-15T03:48:19.491Z,59.08
2019-03-15T03:50:49.697Z,59.13
2019-03-15T03:53:20.292Z,59.17
2019-03-15T03:55:51.603Z,59.23
2019-03-15T03:58:21.965Z,59.27
2019-03-15T04:00:52.580Z,59.32
2019-03-15T04:03:22.999Z,59.36
2019-03-15T04:05:53.650Z,59.39
2019-03-15T04:08:24.115Z,59.42
2019-03-15T04:10:54.274Z,59.48
2019-03-15T04:13:24.480Z,59.50
2019-03-15T04:15:55.040Z,59.54
2019-03-15T04:18:25.665Z,59.58
2019-03-15T04:20:56.345Z,59.59
2019-03-15T04:23:26.989Z,59.63
2019-03-15T04:25:59.294Z,59.68
2019-03-15T04:28:30.020Z,59.69
2019-03-15T04:31:00.314Z,59.73
2019-03-15T04:33:30.531Z,59.76
2019-03-15T04:36:00.765Z,59.80
2019-03-15T04:38:30.975Z,59.84
2019-03-15T04:41:01.552Z,59.86
2019-03-15T04:43:31.831Z,59.89
2019-03-15T04:46:02.077Z,59.92
2019-03-15T04:48:32.319Z,59.94
2019-03-15T04:51:02.609Z,59.98
2019-03-15T04:53:32.809Z,60.00
2019-03-15T04:56:03.026Z,60.04
2019-03-15T04:58:33.243Z,60.06
2019-03-15T05:01:03.802Z,60.08
2019-03-15T05:03:34.450Z,60.13
2019-03-15T05:06:04.758Z,60.14
2019-03-15T05:08:34.970Z,60.18
2019-03-15T05:11:05.555Z,60.21
2019-03-15T05:13:35.844Z,60.21
2019-03-15T05:16:06.058Z,60.25
2019-03-15T05:18:36.684Z,60.27
2019-03-15T05:21:06.971Z,60.32
2019-03-15T05:23:37.569Z,60.35
2019-03-15T05:26:08.197Z,60.38
2019-03-15T05:28:38.486Z,60.40
2019-03-15T05:31:09.066Z,60.44
2019-03-15T05:33:39.816Z,60.49
2019-03-15T05:36:10.083Z,60.53
2019-03-15T05:38:40.328Z,60.59
2019-03-15T05:41:10.947Z,60.63
2019-03-15T05:43:41.708Z,60.68
2019-03-15T05:46:12.238Z,60.72
2019-03-15T05:48:43.805Z,60.79
2019-03-15T05:51:14.363Z,60.82
2019-03-15T05:53:46.606Z,60.84
2019-03-15T05:56:16.924Z,60.91
2019-03-15T05:58:47.458Z,60.94
2019-03-15T06:01:18.110Z,60.97
2019-03-15T06:03:49.383Z,61.02
2019-03-15T06:06:20.398Z,61.05
2019-03-15T06:08:50.689Z,61.10
2019-03-15T06:11:21.137Z,61.14
2019-03-15T06:13:51.346Z,61.19
2019-03-15T06:16:21.914Z,61.23
2019-03-15T06:18:52.231Z,61.25
2019-03-15T06:21:22.836Z,61.29
2019-03-15T06:23:53.468Z,61.32
2019-03-15T06:26:24.126Z,61.38
2019-03-15T06:28:54.426Z,61.41
2019-03-15T06:31:25.010Z,61.45
2019-03-15T06:33:55.627Z,61.51
2019-03-15T06:36:26.275Z,61.55
2019-03-15T06:38:56.650Z,61.58
2019-03-15T06:41:28.205Z,61.64
2019-03-15T06:43:58.908Z,61.67
2019-03-15T06:46:29.455Z,61.72
2019-03-15T06:48:59.752Z,61.76
2019-03-15T06:51:30.315Z,61.80
2019-03-15T06:54:10.985Z,61.84
2019-03-15T06:56:33.932Z,61.87
2019-03-15T06:59:04.589Z,61.89
2019-03-15T07:01:34.887Z,61.93
2019-03-15T07:04:05.483Z,61.95
2019-03-15T07:06:35.760Z,61.96
2019-03-15T07:09:07.610Z,61.96
2019-03-15T07:11:37.826Z,61.99
2019-03-15T07:14:08.418Z,61.99
2019-03-15T07:16:38.667Z,62.02
2019-03-15T07:19:08.876Z,62.06
2019-03-15T07:21:41.027Z,62.08
2019-03-15T07:24:24.166Z,62.10
2019-03-15T07:26:43.991Z,62.15
2019-03-15T07:29:14.519Z,62.17
2019-03-15T07:31:44.796Z,62.20
2019-03-15T07:34:15.742Z,62.22
2019-03-15T07:36:46.044Z,62.25
2019-03-15T07:39:16.324Z,62.28
2019-03-15T07:41:46.878Z,62.28
2019-03-15T07:44:17.530Z,62.30
2019-03-15T07:46:50.942Z,62.33
2019-03-15T07:49:20.235Z,62.34
2019-03-15T07:51:50.441Z,62.34
2019-03-15T07:54:20.646Z,62.38
2019-03-15T07:56:51.223Z,62.43
2019-03-15T07:59:22.783Z,62.44
2019-03-15T08:01:53.639Z,62.44
2019-03-15T08:04:24.285Z,62.41
2019-03-15T08:06:54.555Z,62.41
2019-03-15T08:09:24.844Z,62.38
2019-03-15T08:11:55.024Z,62.34
2019-03-15T08:14:25.256Z,62.32
2019-03-15T08:16:55.507Z,62.29
2019-03-15T08:19:25.725Z,62.27
2019-03-15T08:21:57.475Z,62.26
2019-03-15T08:24:28.362Z,62.25
2019-03-15T08:26:59.081Z,62.25
2019-03-15T08:29:29.373Z,62.26
2019-03-15T08:31:59.669Z,62.29
2019-03-15T08:34:31.233Z,62.29
2019-03-15T08:37:01.512Z,62.30
2019-03-15T08:39:31.803Z,62.26
2019-03-15T08:42:02.373Z,62.27
2019-03-15T08:44:32.644Z,62.28
2019-03-15T08:47:03.328Z,62.25
2019-03-15T08:49:34.178Z,62.23
2019-03-15T08:52:04.496Z,62.25
2019-03-15T08:54:35.293Z,62.25
2019-03-15T08:57:05.931Z,62.24
2019-03-15T08:59:36.681Z,62.26
2019-03-15T09:02:06.966Z,62.25
2019-03-15T09:04:37.294Z,62.26
2019-03-15T09:07:07.838Z,62.27
2019-03-15T09:09:38.567Z,62.25
2019-03-15T09:12:08.874Z,62.27
2019-03-15T09:14:39.458Z,62.25
2019-03-15T09:17:09.768Z,62.25
2019-03-15T09:19:40.326Z,62.25
2019-03-15T09:22:10.968Z,62.26
2019-03-15T09:24:42.790Z,62.27
2019-03-15T09:27:13.071Z,62.30
2019-03-15T09:29:43.631Z,62.32
2019-03-15T09:32:14.275Z,62.33
2019-03-15T09:34:44.973Z,62.37
2019-03-15T09:37:15.350Z,62.44
2019-03-15T09:39:45.940Z,62.45
2019-03-15T09:42:16.562Z,62.47
2019-03-15T09:44:47.213Z,62.45
2019-03-15T09:47:17.839Z,62.41
2019-03-15T09:49:48.139Z,62.39
2019-03-15T09:52:18.386Z,62.37
2019-03-15T09:54:48.597Z,62.35
2019-03-15T09:57:19.168Z,62.36
2019-03-15T09:59:49.478Z,62.30
2019-03-15T10:02:29.642Z,62.22
2019-03-15T10:04:51.607Z,62.20
2019-03-15T10:07:22.022Z,62.15
2019-03-15T10:09:52.572Z,62.09
2019-03-15T10:12:23.285Z,62.09
2019-03-15T10:14:53.497Z,62.12
2019-03-15T10:17:24.078Z,62.13
2019-03-15T10:19:54.699Z,62.12
2019-03-15T10:22:25.360Z,62.12
2019-03-15T10:24:55.715Z,62.12
2019-03-15T10:27:26.287Z,62.11
2019-03-15T10:29:56.572Z,62.13
2019-03-15T10:32:26.798Z,62.16
2019-03-15T10:34:57.995Z,62.11
2019-03-15T10:37:28.607Z,62.09
2019-03-15T10:39:59.261Z,62.07
2019-03-15T10:42:29.608Z,62.07
2019-03-15T10:45:00.431Z,62.02
2019-03-15T10:47:30.986Z,61.98
2019-03-15T10:50:02.973Z,61.89
2019-03-15T10:52:33.223Z,61.86
2019-03-15T10:55:05.081Z,61.81
2019-03-15T10:57:35.593Z,61.78
2019-03-15T11:00:11.581Z,61.77
2019-03-15T11:02:41.790Z,61.74
2019-03-15T11:05:12.245Z,61.72
2019-03-15T11:07:42.473Z,61.68
2019-03-15T11:10:13.933Z,61.65
2019-03-15T11:12:45.415Z,61.61
2019-03-15T11:15:17.033Z,61.58
2019-03-15T11:17:47.346Z,61.59
2019-03-15T11:20:18.016Z,61.58
2019-03-15T11:22:48.646Z,61.60
2019-03-15T11:25:19.276Z,61.58
2019-03-15T11:27:49.908Z,61.55
2019-03-15T11:30:20.188Z,61.52
2019-03-15T11:32:50.498Z,61.42
2019-03-15T11:35:21.729Z,61.33
2019-03-15T11:37:52.611Z,61.21
2019-03-15T11:40:22.897Z,61.08
2019-03-15T11:42:53.132Z,60.96
2019-03-15T11:45:23.743Z,60.88
2019-03-15T11:48:03.402Z,60.78
2019-03-15T11:50:26.006Z,60.67
2019-03-15T11:52:56.215Z,60.63
2019-03-15T11:55:26.464Z,60.64
2019-03-15T11:57:57.071Z,60.71
2019-03-15T12:00:27.374Z,60.73
2019-03-15T12:02:57.618Z,60.73
2019-03-15T12:05:28.193Z,60.74
2019-03-15T12:07:58.927Z,60.71
2019-03-15T12:10:29.579Z,60.62
2019-03-15T12:12:59.865Z,60.54
2019-03-15T12:15:30.535Z,60.45
2019-03-15T12:18:01.151Z,60.38
2019-03-15T12:20:31.424Z,60.32
2019-03-15T12:23:01.672Z,60.29
2019-03-15T12:25:31.857Z,60.27
2019-03-15T12:28:02.513Z,60.23
2019-03-15T12:30:32.830Z,60.20
2019-03-15T12:33:03.078Z,60.15
2019-03-15T12:35:33.647Z,60.13
2019-03-15T12:38:03.996Z,60.08
2019-03-15T12:40:34.219Z,59.99
2019-03-15T12:43:04.495Z,59.91
2019-03-15T12:45:34.735Z,59.84
2019-03-15T12:48:04.949Z,59.76
2019-03-15T12:50:35.183Z,59.71
2019-03-15T12:53:05.742Z,59.65
2019-03-15T12:55:37.059Z,59.60
2019-03-15T12:58:07.747Z,59.55
2019-03-15T13:00:38.251Z,59.53
2019-03-15T13:03:08.844Z,59.51
2019-03-15T13:05:39.127Z,59.48
2019-03-15T13:08:09.923Z,59.46
2019-03-15T13:10:40.233Z,59.43
2019-03-15T13:13:10.448Z,59.38
2019-03-15T13:15:40.682Z,59.31
2019-03-15T13:18:10.920Z,59.25
2019-03-15T13:20:41.502Z,59.19
2019-03-15T13:23:12.137Z,59.11
2019-03-15T13:25:44.556Z,59.06
2019-03-15T13:28:14.833Z,59.00
2019-03-15T13:30:46.067Z,58.96
2019-03-15T13:33:20.730Z,58.92
2019-03-15T13:35:50.063Z,58.89
2019-03-15T13:38:20.334Z,58.87
2019-03-15T13:40:50.930Z,58.87
2019-03-15T13:43:21.518Z,58.93
2019-03-15T13:45:51.823Z,58.98
2019-03-15T13:48:22.073Z,59.00
2019-03-15T13:50:52.623Z,58.99
2019-03-15T13:53:22.895Z,58.97
2019-03-15T13:55:53.530Z,58.95
2019-03-15T13:58:24.993Z,58.96
2019-03-15T14:00:55.212Z,58.99
2019-03-15T14:03:25.442Z,58.96
2019-03-15T14:05:55.693Z,58.92
2019-03-15T14:08:26.314Z,58.91
2019-03-15T14:10:56.948Z,58.86
2019-03-15T14:13:27.222Z,58.81
2019-03-15T14:15:57.423Z,58.78
2019-03-15T14:18:29.366Z,58.73
2019-03-15T14:21:00.101Z,58.69
2019-03-15T14:23:30.419Z,58.68
2019-03-15T14:26:03.625Z,58.69
2019-03-15T14:28:33.980Z,58.68
2019-03-15T14:31:04.609Z,58.70
2019-03-15T14:33:37.002Z,58.68
2019-03-15T14:36:07.598Z,58.68
2019-03-15T14:38:38.535Z,58.68
2019-03-15T14:41:09.233Z,58.68
2019-03-15T14:43:39.627Z,58.66
2019-03-15T14:46:12.213Z,58.65
2019-03-15T14:48:45.749Z,58.67
2019-03-15T14:51:16.037Z,58.68
2019-03-15T14:53:46.593Z,58.66
2019-03-15T14:56:17.227Z,58.64
2019-03-15T14:58:47.604Z,58.62
2019-03-15T15:01:17.808Z,58.58
2019-03-15T15:03:48.365Z,58.55
2019-03-15T15:06:19.414Z,58.53
2019-03-15T15:08:50.036Z,58.52
2019-03-15T15:11:20.691Z,58.51
2019-03-15T15:13:51.321Z,58.50
2019-03-15T15:16:21.598Z,58.48
2019-03-15T15:18:52.193Z,58.50
2019-03-15T15:21:22.843Z,58.47
2019-03-15T15:23:53.513Z,58.49
2019-03-15T15:26:24.246Z,58.51
2019-03-15T15:28:54.852Z,58.50
2019-03-15T15:31:25.488Z,58.50
2019-03-15T15:33:57.811Z,58.51
2019-03-15T15:36:28.104Z,58.50
2019-03-15T15:38:58.781Z,58.51
2019-03-15T15:41:29.460Z,58.51
2019-03-15T15:43:59.754Z,58.53
2019-03-15T15:46:30.403Z,58.52
2019-03-15T15:49:01.053Z,58.52
2019-03-15T15:51:31.347Z,58.49
2019-03-15T15:54:01.641Z,58.51
2019-03-15T15:56:32.174Z,58.52
2019-03-15T15:59:03.307Z,58.52
2019-03-15T16:01:34.220Z,58.52
2019-03-15T16:04:05.002Z,58.54
2019-03-15T16:06:35.698Z,58.54
2019-03-15T16:09:07.715Z,58.53
2019-03-15T16:11:38.396Z,58.56
2019-03-15T16:14:09.076Z,58.56
2019-03-15T16:16:39.763Z,58.56
2019-03-15T16:19:10.028Z,58.56
2019-03-15T16:21:40.602Z,58.59
2019-03-15T16:24:11.289Z,58.58
2019-03-15T16:26:41.551Z,58.59
2019-03-15T16:29:11.768Z,58.60
2019-03-15T16:31:42.004Z,58.60
2019-03-15T16:34:12.563Z,58.62
2019-03-15T16:36:43.844Z,58.63
2019-03-15T16:39:14.423Z,58.67
2019-03-15T16:41:45.152Z,58.68
2019-03-15T16:44:15.794Z,58.68
2019-03-15T16:46:46.439Z,58.70
2019-03-15T16:49:17.063Z,58.70
2019-03-15T16:51:47.335Z,58.72
2019-03-15T16:54:17.946Z,58.75
2019-03-15T16:56:48.392Z,58.75
2019-03-15T16:59:18.595Z,58.78
2019-03-15T17:01:48.866Z,58.81
2019-03-15T17:04:19.077Z,58.81
2019-03-15T17:06:49.673Z,58.87
2019-03-15T17:09:20.290Z,58.88
2019-03-15T17:11:50.954Z,58.93
2019-03-15T17:14:25.752Z,58.94
2019-03-15T17:16:54.183Z,58.96
2019-03-15T17:19:26.206Z,58.99
2019-03-15T17:21:56.464Z,59.01
2019-03-15T17:24:27.012Z,59.02
2019-03-15T17:26:57.732Z,59.03
2019-03-15T17:29:28.374Z,59.07
2019-03-15T17:31:58.743Z,59.10
2019-03-15T17:34:29.325Z,59.12
2019-03-15T17:37:06.663Z,59.15
2019-03-15T17:39:32.185Z,59.19
2019-03-15T17:42:02.378Z,59.22
2019-03-15T17:44:32.625Z,59.24
2019-03-15T17:47:02.854Z,59.29
2019-03-15T17:49:37.044Z,59.32
2019-03-15T17:52:07.679Z,59.35
2019-03-15T17:54:38.367Z,59.40
2019-03-15T17:57:08.652Z,59.43
2019-03-15T17:59:39.198Z,59.46
2019-03-15T18:02:10.014Z,59.53
2019-03-15T18:04:40.716Z,59.55
2019-03-15T18:07:11.345Z,59.59
2019-03-15T18:09:41.640Z,59.62
2019-03-15T18:12:12.180Z,59.65
2019-03-15T18:14:43.157Z,59.68
2019-03-15T18:17:13.371Z,59.71
2019-03-15T18:19:43.623Z,59.75
2019-03-15T18:22:14.179Z,59.78
2019-03-15T18:24:44.851Z,59.80
2019-03-15T18:27:15.058Z,59.84
2019-03-15T18:29:46.421Z,59.87
2019-03-15T18:32:16.720Z,59.89
2019-03-15T18:34:46.945Z,59.91
2019-03-15T18:37:17.161Z,59.94
2019-03-15T18:39:47.525Z,59.96
2019-03-15T18:42:17.841Z,59.98
2019-03-15T18:44:48.138Z,59.99
2019-03-15T18:47:18.351Z,60.03
2019-03-15T18:49:48.583Z,60.04
2019-03-15T18:52:18.869Z,60.06
2019-03-15T18:54:49.869Z,60.08
2019-03-15T18:57:20.460Z,60.07
2019-03-15T18:59:52.110Z,60.13
2019-03-15T19:02:22.433Z,60.15
2019-03-15T19:04:52.660Z,60.19
2019-03-15T19:07:23.206Z,60.23
2019-03-15T19:09:53.502Z,60.28
2019-03-15T19:12:24.140Z,60.33
2019-03-15T19:14:54.415Z,60.39
2019-03-15T19:17:24.644Z,60.44
2019-03-15T19:19:54.887Z,60.46
2019-03-15T19:22:26.193Z,60.50
2019-03-15T19:24:56.757Z,60.54
2019-03-15T19:27:27.174Z,60.58
2019-03-15T19:29:59.365Z,60.60
2019-03-15T19:32:29.599Z,60.64
2019-03-15T19:34:59.853Z,60.66
2019-03-15T19:37:31.622Z,60.70
2019-03-15T19:40:02.050Z,60.71
2019-03-15T19:42:32.621Z,60.74
2019-03-15T19:45:02.935Z,60.75
2019-03-15T19:47:33.452Z,60.79
2019-03-15T19:50:06.486Z,60.81
2019-03-15T19:52:36.858Z,60.84
2019-03-15T19:55:11.430Z,60.88
2019-03-15T19:57:42.105Z,60.89
2019-03-15T20:00:18.001Z,60.91
2019-03-15T20:02:48.664Z,60.94
2019-03-15T20:05:19.077Z,60.96
2019-03-15T20:07:49.834Z,60.98
2019-03-15T20:10:20.431Z,61.03
2019-03-15T20:12:50.997Z,61.02
2019-03-15T20:15:21.369Z,61.06
2019-03-15T20:17:52.475Z,61.08
2019-03-15T20:20:22.739Z,61.12
2019-03-15T20:22:52.984Z,61.12
2019-03-15T20:25:23.731Z,61.15
2019-03-15T20:27:54.378Z,61.16
2019-03-15T20:30:26.867Z,61.21
2019-03-15T20:32:58.844Z,61.22
2019-03-15T20:35:29.452Z,61.26
2019-03-15T20:38:00.131Z,61.28
2019-03-15T20:40:30.799Z,61.31
2019-03-15T20:43:01.098Z,61.34
2019-03-15T20:45:31.363Z,61.38
2019-03-15T20:48:01.941Z,61.39
2019-03-15T20:50:45.856Z,61.43
2019-03-15T20:53:09.891Z,61.46
2019-03-15T20:55:36.932Z,61.48
2019-03-15T20:58:07.683Z,61.50
2019-03-15T21:00:38.502Z,61.54
2019-03-15T21:03:08.855Z,61.57
2019-03-15T21:05:39.064Z,61.59
2019-03-15T21:08:09.316Z,61.61
2019-03-15T21:10:39.524Z,61.65
2019-03-15T21:13:09.806Z,61.66
2019-03-15T21:15:40.411Z,61.69
2019-03-15T21:18:10.652Z,61.73
2019-03-15T21:20:41.227Z,61.74
2019-03-15T21:23:11.554Z,61.77
2019-03-15T21:25:42.127Z,61.79
2019-03-15T21:28:12.754Z,61.82
2019-03-15T21:30:48.468Z,61.85
2019-03-15T21:33:15.046Z,61.86
2019-03-15T21:35:45.632Z,61.89
2019-03-15T21:38:16.572Z,61.90
2019-03-15T21:40:49.048Z,61.96
2019-03-15T21:43:21.226Z,61.96
2019-03-15T21:45:52.480Z,61.98
2019-03-15T21:48:24.275Z,62.01
2019-03-15T21:50:54.704Z,62.04
2019-03-15T21:53:25.264Z,62.04
2019-03-15T21:55:55.955Z,62.08
2019-03-15T21:58:26.584Z,62.12
2019-03-15T22:01:02.142Z,62.16
2019-03-15T22:03:28.802Z,62.17
2019-03-15T22:05:59.496Z,62.19
2019-03-15T22:08:30.137Z,62.23
2019-03-15T22:11:02.433Z,62.24
2019-03-15T22:13:32.844Z,62.26
2019-03-15T22:16:03.067Z,62.29
2019-03-15T22:18:35.240Z,62.33
2019-03-15T22:21:05.611Z,62.38
2019-03-15T22:23:35.818Z,62.41
2019-03-15T22:26:06.410Z,62.42
2019-03-15T22:28:36.715Z,62.45
2019-03-15T22:31:16.512Z,62.49
2019-03-15T22:33:39.431Z,62.52
2019-03-15T22:36:10.065Z,62.55
2019-03-15T22:38:40.714Z,62.58
2019-03-15T22:41:11.426Z,62.59
2019-03-15T22:43:41.732Z,62.62
2019-03-15T22:46:11.963Z,62.64
2019-03-15T22:48:42.166Z,62.67
2019-03-15T22:51:12.826Z,62.69
2019-03-15T22:53:43.480Z,62.71
2019-03-15T22:56:14.170Z,62.73
2019-03-15T22:58:44.802Z,62.78
2019-03-15T23:01:29.169Z,62.81
2019-03-15T23:03:47.860Z,62.83
2019-03-15T23:06:18.174Z,62.84
2019-03-15T23:08:48.355Z,62.85
2019-03-15T23:11:18.954Z,62.87
2019-03-15T23:13:49.345Z,62.89
2019-03-15T23:16:19.564Z,62.94
2019-03-15T23:18:49.771Z,62.95
2019-03-15T23:21:20.413Z,62.98
2019-03-15T23:23:51.117Z,63.01
2019-03-15T23:26:21.428Z,63.03
2019-03-15T23:28:51.630Z,63.07
2019-03-15T23:31:22.255Z,63.10
2019-03-15T23:33:52.899Z,63.11
2019-03-15T23:36:23.187Z,63.09
2019-03-15T23:38:53.419Z,63.08
2019-03-15T23:41:23.974Z,63.12
2019-03-15T23:43:54.603Z,63.15
2019-03-15T23:46:25.234Z,63.16
2019-03-15T23:48:55.496Z,63.17
2019-03-15T23:51:25.756Z,63.20
2019-03-15T23:53:57.925Z,63.22
2019-03-15T23:56:28.656Z,63.24
2019-03-15T23:58:59.763Z,63.28
